Time;durP1;ratioP1;P1;durP2;ratioP2;P2;SDS_P1;SDS_P2;PMS_P1;PMS_P2;Temp;Humidity;BMP_temperature;BMP_pressure;BME280_temperature;BME280_humidity;BME280_pressure;Samples;Min_cycle;Max_cycle;Signal;HPM_P1;HPM_P2
2022/04/24 00:00:49;;;;;;;9.68;6.13;;;20.80;63.70;;;;;;5006583;28;96359;-61
2022/04/24 00:03:14;;;;;;;7.60;6.80;;;20.70;63.50;;;;;;5013749;28;93386;-61
2022/04/24 00:05:40;;;;;;;8.00;6.50;;;20.70;63.50;;;;;;5008444;28;94083;-61
2022/04/24 00:08:06;;;;;;;9.05;6.70;;;20.70;63.70;;;;;;5009056;28;92856;-61
2022/04/24 00:10:31;;;;;;;8.65;6.38;;;20.70;63.40;;;;;;5008705;28;92968;-61
2022/04/24 00:12:57;;;;;;;7.30;6.38;;;20.70;63.60;;;;;;5008972;28;92908;-61
2022/04/24 00:15:23;;;;;;;7.65;6.68;;;20.70;63.60;;;;;;5009090;28;92817;-61
2022/04/24 00:17:48;;;;;;;8.13;6.18;;;20.70;63.50;;;;;;5009716;28;93168;-61
2022/04/24 00:20:14;;;;;;;9.15;6.32;;;20.70;63.70;;;;;;5014171;28;93264;-61
2022/04/24 00:22:40;;;;;;;7.78;6.22;;;20.70;63.60;;;;;;5009779;28;92831;-61
2022/04/24 00:25:08;;;;;;;7.63;6.80;;;20.70;63.50;;;;;;5009526;28;92441;-61
2022/04/24 00:27:34;;;;;;;8.00;6.57;;;20.80;63.50;;;;;;5008900;28;92824;-61
2022/04/24 00:30:01;;;;;;;7.35;6.30;;;20.70;63.30;;;;;;5007214;28;94684;-62
2022/04/24 00:32:26;;;;;;;8.05;6.57;;;20.70;63.50;;;;;;5009010;28;93222;-61
2022/04/24 00:34:52;;;;;;;7.72;6.28;;;20.70;63.20;;;;;;5009308;28;93118;-61
2022/04/24 00:37:18;;;;;;;7.15;6.45;;;20.70;63.30;;;;;;5009962;28;92065;-61
2022/04/24 00:39:43;;;;;;;8.60;7.10;;;20.70;63.30;;;;;;5008722;28;93707;-61
2022/04/24 00:42:09;;;;;;;7.22;6.15;;;20.70;63.30;;;;;;5007497;28;93650;-61
2022/04/24 00:44:35;;;;;;;8.65;6.18;;;20.70;63.30;;;;;;5008630;28;92670;-61
2022/04/24 00:47:06;;;;;;;7.43;6.20;;;20.70;63.50;;;;;;5007404;28;91817;-61
2022/04/24 00:49:32;;;;;;;8.70;6.88;;;20.70;63.30;;;;;;5007310;27;93574;-61
2022/04/24 00:51:57;;;;;;;7.30;6.10;;;20.70;63.30;;;;;;5008035;28;93114;-62
2022/04/24 00:54:23;;;;;;;7.63;6.80;;;20.70;63.50;;;;;;5008262;28;93778;-61
2022/04/24 00:56:49;;;;;;;6.97;6.20;;;20.70;63.30;;;;;;5008764;28;93344;-62
2022/04/24 00:59:16;;;;;;;6.97;6.15;;;20.70;63.40;;;;;;5013006;28;96397;-62
2022/04/24 01:01:42;;;;;;;6.97;5.72;;;20.60;63.30;;;;;;5007428;28;93427;-61
2022/04/24 01:04:11;;;;;;;7.65;6.30;;;20.60;63.30;;;;;;5008428;28;92989;-61
2022/04/24 01:06:41;;;;;;;7.50;6.10;;;20.70;63.20;;;;;;5008773;28;92751;-62
2022/04/24 01:09:12;;;;;;;7.50;6.32;;;20.60;63.30;;;;;;5007111;28;92659;-61
2022/04/24 01:11:40;;;;;;;6.90;6.20;;;20.60;63.30;;;;;;5012402;28;92662;-61
2022/04/24 01:14:06;;;;;;;7.03;6.32;;;20.60;63.30;;;;;;5022907;27;92801;-62
2022/04/24 01:16:32;;;;;;;6.40;5.80;;;20.70;63.30;;;;;;5008152;28;93191;-61
2022/04/24 01:18:59;;;;;;;6.93;6.20;;;20.60;63.10;;;;;;5008467;28;95149;-61
2022/04/24 01:21:24;;;;;;;6.50;5.90;;;20.60;63.10;;;;;;5007624;28;94028;-62
2022/04/24 01:23:50;;;;;;;7.43;6.65;;;20.60;63.10;;;;;;5008332;28;93220;-61
2022/04/24 01:26:15;;;;;;;8.02;6.45;;;20.60;63.10;;;;;;5013198;28;92695;-61
2022/04/24 01:28:41;;;;;;;8.25;6.55;;;20.70;63.20;;;;;;5008711;28;92973;-62
2022/04/24 01:31:07;;;;;;;7.68;6.00;;;20.60;63.20;;;;;;5010751;28;92900;-61
2022/04/24 01:33:32;;;;;;;7.43;6.32;;;20.60;63.10;;;;;;5009318;28;92761;-62
2022/04/24 01:35:58;;;;;;;6.45;5.78;;;20.60;63.30;;;;;;5008410;28;92083;-61
2022/04/24 01:38:24;;;;;;;7.45;6.18;;;20.60;63.10;;;;;;5011896;28;92973;-61
2022/04/24 01:40:49;;;;;;;6.90;6.20;;;20.60;63.10;;;;;;5012527;28;93910;-62
2022/04/24 01:43:18;;;;;;;6.80;6.05;;;20.60;63.10;;;;;;5010412;28;93488;-62
2022/04/24 01:45:44;;;;;;;6.73;6.13;;;20.60;63.00;;;;;;5008157;28;92620;-62
2022/04/24 01:48:10;;;;;;;7.70;6.07;;;20.60;63.10;;;;;;5007522;28;93137;-62
2022/04/24 01:50:36;;;;;;;6.60;5.88;;;20.60;63.00;;;;;;5011876;28;92680;-61
2022/04/24 01:53:02;;;;;;;6.85;6.15;;;20.60;62.90;;;;;;5006084;28;92565;-61
2022/04/24 01:55:27;;;;;;;6.55;5.95;;;20.60;63.10;;;;;;5018631;28;91992;-61
2022/04/24 01:57:53;;;;;;;7.03;6.32;;;20.60;63.00;;;;;;5009856;28;92996;-61
2022/04/24 02:03:00;;;;;;;6.70;6.00;;;20.60;62.90;;;;;;4997359;28;92187;-86
2022/04/24 02:05:26;;;;;;;6.72;6.03;;;20.50;62.80;;;;;;5001657;28;92501;-87
2022/04/24 02:07:51;;;;;;;6.18;5.50;;;20.50;62.90;;;;;;5002752;28;93716;-87
2022/04/24 02:10:17;;;;;;;7.65;6.03;;;20.50;62.80;;;;;;4999193;28;94612;-87
2022/04/24 02:12:44;;;;;;;6.38;5.78;;;20.50;62.70;;;;;;5003008;28;93042;-87
2022/04/24 02:15:18;;;;;;;6.65;5.95;;;20.50;62.80;;;;;;5005504;28;91963;-85
2022/04/24 02:17:43;;;;;;;6.00;5.40;;;20.50;63.60;;;;;;5002546;28;93398;-86
2022/04/24 02:20:10;;;;;;;6.45;5.85;;;20.50;62.70;;;;;;5001666;28;92534;-85
2022/04/24 02:22:36;;;;;;;7.05;6.35;;;20.60;62.80;;;;;;4999219;28;93019;-87
2022/04/24 02:25:03;;;;;;;6.32;5.72;;;20.50;62.70;;;;;;5003956;28;92159;-86
2022/04/24 02:27:29;;;;;;;8.38;6.00;;;20.50;62.90;;;;;;4995767;28;95839;-86
2022/04/24 02:29:54;;;;;;;6.95;5.57;;;20.50;62.80;;;;;;5002939;28;94790;-86
2022/04/24 02:32:20;;;;;;;7.43;6.20;;;20.50;62.70;;;;;;4996244;28;93928;-85
2022/04/24 02:34:45;;;;;;;6.78;6.05;;;20.50;62.60;;;;;;4996074;28;92989;-86
2022/04/24 02:37:11;;;;;;;7.68;6.93;;;20.50;62.70;;;;;;5001443;28;93205;-86
2022/04/24 02:39:37;;;;;;;6.25;5.65;;;20.50;62.60;;;;;;4999414;28;92856;-86
2022/04/24 02:42:03;;;;;;;6.25;5.65;;;20.50;62.50;;;;;;5001146;28;92417;-86
2022/04/24 02:44:28;;;;;;;6.60;5.70;;;20.50;62.40;;;;;;4998593;28;92533;-85
2022/04/24 02:46:54;;;;;;;6.53;5.82;;;20.50;62.50;;;;;;4995884;28;96061;-85
2022/04/24 02:49:19;;;;;;;7.05;5.97;;;20.50;62.50;;;;;;4994363;28;91795;-86
2022/04/24 02:51:45;;;;;;;7.03;6.32;;;20.50;62.40;;;;;;4998587;28;93761;-86
2022/04/24 02:54:11;;;;;;;6.57;5.85;;;20.50;62.60;;;;;;4998537;28;92507;-85
2022/04/24 02:56:36;;;;;;;7.57;5.88;;;20.50;62.30;;;;;;4991307;28;94918;-85
2022/04/24 02:59:02;;;;;;;6.30;5.70;;;20.40;63.20;;;;;;4994897;28;95427;-85
2022/04/24 03:01:36;;;;;;;6.43;5.82;;;20.40;62.40;;;;;;4999584;28;92647;-85
2022/04/24 03:04:01;;;;;;;6.05;5.45;;;20.40;62.30;;;;;;5001924;28;92450;-84
2022/04/24 03:06:27;;;;;;;6.78;6.07;;;20.40;62.30;;;;;;4995607;28;94633;-85
2022/04/24 03:08:52;;;;;;;6.30;5.70;;;20.40;62.30;;;;;;4998159;28;93407;-85
2022/04/24 03:11:18;;;;;;;6.30;5.70;;;20.40;62.30;;;;;;5000731;28;92226;-84
2022/04/24 03:13:44;;;;;;;14.65;5.78;;;20.40;62.40;;;;;;5005431;28;91146;-84
2022/04/24 03:16:09;;;;;;;15.63;5.55;;;20.40;61.60;;;;;;5000230;28;92658;-85
2022/04/24 03:18:35;;;;;;;10.02;5.93;;;20.40;62.40;;;;;;4998727;28;94795;-86
2022/04/24 03:21:01;;;;;;;8.10;5.93;;;20.40;62.30;;;;;;4999588;28;93145;-85
2022/04/24 03:23:27;;;;;;;14.48;6.13;;;20.40;62.10;;;;;;4998296;28;92967;-85
2022/04/24 03:25:53;;;;;;;13.57;5.88;;;20.40;62.00;;;;;;4999582;28;92791;-85
2022/04/24 03:28:18;;;;;;;11.18;6.13;;;20.50;62.00;;;;;;4998227;28;95288;-86
2022/04/24 03:30:45;;;;;;;13.07;6.45;;;20.40;62.20;;;;;;5000730;28;92801;-84
2022/04/24 03:33:11;;;;;;;19.13;6.82;;;20.40;62.70;;;;;;4996398;28;92585;-84
2022/04/24 03:35:37;;;;;;;12.05;6.63;;;20.40;63.00;;;;;;4997677;28;93173;-83
2022/04/24 03:38:03;;;;;;;15.38;6.35;;;20.40;62.20;;;;;;4997968;28;92796;-85
2022/04/24 03:40:29;;;;;;;12.73;6.95;;;20.40;62.40;;;;;;4998439;28;92458;-85
2022/04/24 03:42:54;;;;;;;13.70;7.40;;;20.50;62.10;;;;;;4999960;28;91904;-85
2022/04/24 03:45:20;;;;;;;7.20;5.93;;;20.50;61.30;;;;;;4996005;28;96683;-85
2022/04/24 03:47:47;;;;;;;20.52;7.53;;;20.40;61.20;;;;;;4995064;28;93693;-85
2022/04/24 03:50:13;;;;;;;10.00;6.05;;;20.40;61.80;;;;;;4996975;28;92606;-87
2022/04/24 03:52:39;;;;;;;8.65;5.28;;;20.40;61.80;;;;;;4997117;28;92918;-85
2022/04/24 03:55:05;;;;;;;16.92;6.65;;;20.40;60.60;;;;;;4992822;28;96576;-87
2022/04/24 03:57:31;;;;;;;26.52;7.20;;;20.40;61.70;;;;;;4992166;28;95751;-87
2022/04/24 03:59:57;;;;;;;14.40;5.38;;;20.40;62.10;;;;;;4995372;28;92000;-84
2022/04/24 04:02:23;;;;;;;48.95;7.68;;;20.40;62.10;;;;;;4999690;28;92388;-86
2022/04/24 04:04:49;;;;;;;19.63;6.95;;;20.40;61.90;;;;;;4998666;28;92976;-86
2022/04/24 04:07:15;;;;;;;12.52;6.15;;;20.40;62.00;;;;;;4993830;28;92896;-84
2022/04/24 04:09:40;;;;;;;15.90;6.22;;;20.40;62.00;;;;;;4998901;28;93047;-88
2022/04/24 04:12:07;;;;;;;12.48;6.13;;;20.40;62.00;;;;;;4995444;28;92487;-86
2022/04/24 04:14:32;;;;;;;19.17;6.32;;;20.40;62.20;;;;;;4993379;28;92963;-86
2022/04/24 04:16:58;;;;;;;16.77;6.28;;;20.40;62.30;;;;;;4996544;28;92522;-85
2022/04/24 04:19:24;;;;;;;10.57;5.60;;;20.40;62.10;;;;;;4993281;28;92619;-86
2022/04/24 04:21:49;;;;;;;18.35;6.30;;;20.40;62.20;;;;;;4994531;28;92349;-86
2022/04/24 04:24:15;;;;;;;14.73;6.38;;;20.40;62.10;;;;;;4998018;28;93027;-86
2022/04/24 04:26:41;;;;;;;17.85;6.10;;;20.40;62.20;;;;;;5000577;28;95108;-87
2022/04/24 04:29:07;;;;;;;18.20;5.88;;;20.40;62.20;;;;;;4994449;28;92446;-87
2022/04/24 04:31:33;;;;;;;15.90;6.20;;;20.40;62.40;;;;;;4998608;28;93068;-85
2022/04/24 04:33:58;;;;;;;14.40;5.90;;;20.30;61.80;;;;;;4996722;28;93749;-86
2022/04/24 04:36:24;;;;;;;13.45;5.53;;;20.30;61.10;;;;;;5000754;28;93300;-84
2022/04/24 04:38:50;;;;;;;6.82;4.97;;;20.30;60.20;;;;;;5001892;28;92481;-87
2022/04/24 04:41:15;;;;;;;10.95;4.93;;;20.30;60.00;;;;;;5000661;28;93199;-86
2022/04/24 04:43:41;;;;;;;13.10;5.38;;;20.30;60.00;;;;;;5001407;28;93026;-88
2022/04/24 04:46:11;;;;;;;12.45;5.30;;;20.30;60.40;;;;;;5001086;28;92315;-88
2022/04/24 04:48:37;;;;;;;13.55;5.80;;;20.30;60.20;;;;;;5002647;28;92838;-86
2022/04/24 04:51:03;;;;;;;7.78;5.35;;;20.30;60.20;;;;;;5000417;28;91836;-88
2022/04/24 04:53:28;;;;;;;11.80;5.10;;;20.30;60.20;;;;;;4999574;28;93140;-88
2022/04/24 04:55:54;;;;;;;11.82;5.80;;;20.30;61.30;;;;;;5000037;28;92960;-89
2022/04/24 04:58:20;;;;;;;8.43;5.50;;;20.30;60.60;;;;;;5003154;28;94207;-90
2022/04/24 05:00:45;;;;;;;10.13;5.40;;;20.30;60.50;;;;;;4998954;28;92156;-87
2022/04/24 05:03:11;;;;;;;7.40;5.45;;;20.30;60.10;;;;;;5004065;28;92826;-86
2022/04/24 05:05:37;;;;;;;7.22;4.75;;;20.30;60.40;;;;;;5000394;28;92948;-87
2022/04/24 05:08:02;;;;;;;8.20;5.28;;;20.30;60.40;;;;;;5002841;28;92450;-87
2022/04/24 05:10:28;;;;;;;9.25;4.97;;;20.30;60.30;;;;;;5000025;28;91916;-87
2022/04/24 05:12:54;;;;;;;9.80;5.22;;;20.30;60.00;;;;;;5001935;28;93046;-88
2022/04/24 05:15:21;;;;;;;8.40;5.13;;;20.30;60.30;;;;;;4998343;28;96800;-88
2022/04/24 05:17:47;;;;;;;9.65;5.68;;;20.30;60.20;;;;;;4998311;28;92009;-88
2022/04/24 05:20:13;;;;;;;12.10;4.63;;;20.30;60.30;;;;;;5001508;28;92267;-85
2022/04/24 05:22:40;;;;;;;5.60;4.93;;;20.30;60.60;;;;;;5000055;28;96612;-87
2022/04/24 05:25:09;;;;;;;9.18;5.00;;;20.30;61.40;;;;;;4997251;28;94131;-87
2022/04/24 05:27:36;;;;;;;7.55;5.18;;;20.30;61.10;;;;;;4996638;28;92036;-86
2022/04/24 05:30:07;;;;;;;8.32;5.70;;;20.40;61.00;;;;;;5002679;28;92535;-87
2022/04/24 05:32:49;;;;;;;7.70;5.10;;;20.40;60.90;;;;;;4996626;28;93155;-84
2022/04/24 05:35:15;;;;;;;11.00;5.50;;;20.40;60.80;;;;;;4995296;28;92691;-86
2022/04/24 05:37:42;;;;;;;7.57;5.28;;;20.40;61.30;;;;;;4999841;28;92528;-85
2022/04/24 05:40:08;;;;;;;7.88;5.00;;;20.40;61.00;;;;;;5000196;28;91745;-87
2022/04/24 05:42:34;;;;;;;11.00;5.60;;;20.40;61.10;;;;;;4994617;28;92966;-86
2022/04/24 05:45:04;;;;;;;10.60;5.68;;;20.40;61.10;;;;;;4998134;28;92515;-85
2022/04/24 05:47:31;;;;;;;9.02;5.57;;;20.40;61.10;;;;;;5001293;28;94074;-87
2022/04/24 05:49:56;;;;;;;13.50;5.95;;;20.40;61.00;;;;;;5002519;28;92542;-86
2022/04/24 05:52:23;;;;;;;11.35;5.82;;;20.50;61.20;;;;;;5004242;28;92871;-87
2022/04/24 05:54:49;;;;;;;10.68;6.25;;;20.50;61.20;;;;;;4995146;28;92761;-85
2022/04/24 05:57:15;;;;;;;16.92;7.07;;;20.50;61.30;;;;;;4989469;28;92916;-87
2022/04/24 05:59:40;;;;;;;19.35;7.50;;;20.50;61.30;;;;;;4997962;28;92576;-86
2022/04/24 06:02:06;;;;;;;12.88;7.30;;;20.50;61.20;;;;;;5002920;28;92697;-88
2022/04/24 06:04:32;;;;;;;18.70;8.23;;;20.50;61.20;;;;;;5000599;28;92704;-88
2022/04/24 06:06:57;;;;;;;19.80;8.18;;;20.50;61.30;;;;;;4997149;28;92602;-85
2022/04/24 06:09:23;;;;;;;18.60;8.00;;;20.50;61.40;;;;;;4998090;28;92000;-86
2022/04/24 06:11:49;;;;;;;24.30;8.73;;;20.50;60.70;;;;;;4998409;28;93982;-85
2022/04/24 06:14:14;;;;;;;23.70;9.20;;;20.50;60.70;;;;;;5002353;28;93830;-82
2022/04/24 06:16:40;;;;;;;26.33;8.88;;;20.50;60.00;;;;;;4999343;28;92815;-85
2022/04/24 06:19:05;;;;;;;28.50;9.45;;;20.50;59.50;;;;;;4997954;28;92663;-86
2022/04/24 06:21:31;;;;;;;21.35;8.70;;;20.50;59.20;;;;;;4997758;28;93056;-85
2022/04/24 06:23:56;;;;;;;26.55;9.40;;;20.50;58.70;;;;;;4999652;28;92910;-85
2022/04/24 06:26:22;;;;;;;22.50;9.35;;;20.50;58.40;;;;;;5001706;28;93032;-86
2022/04/24 06:28:48;;;;;;;23.00;9.43;;;20.50;58.60;;;;;;5000122;28;92204;-87
2022/04/24 06:31:13;;;;;;;21.15;9.23;;;20.50;58.40;;;;;;5000277;28;93106;-86
2022/04/24 06:33:39;;;;;;;22.88;9.23;;;20.60;58.50;;;;;;5004403;28;92425;-85
2022/04/24 06:36:05;;;;;;;28.30;9.40;;;20.60;57.80;;;;;;5000768;28;93848;-85
2022/04/24 06:38:30;;;;;;;25.15;9.35;;;20.50;57.30;;;;;;4993767;28;92677;-86
2022/04/24 06:40:56;;;;;;;26.38;9.48;;;20.60;57.00;;;;;;4996493;28;94816;-87
2022/04/24 06:43:21;;;;;;;30.45;9.15;;;20.60;57.10;;;;;;4999459;28;96010;-86
2022/04/24 06:45:47;;;;;;;24.42;9.13;;;20.60;57.10;;;;;;4999299;28;92405;-85
2022/04/24 06:48:19;;;;;;;25.73;8.63;;;20.60;57.10;;;;;;4999715;28;92230;-87
2022/04/24 06:50:46;;;;;;;20.55;8.13;;;20.60;56.90;;;;;;5002629;28;92113;-87
2022/04/24 06:53:18;;;;;;;22.58;7.95;;;20.60;56.50;;;;;;4999545;28;93540;-84
2022/04/24 06:55:46;;;;;;;21.77;8.38;;;20.60;56.30;;;;;;4993671;28;92389;-86
2022/04/24 06:58:13;;;;;;;18.73;8.45;;;20.60;56.20;;;;;;4999425;28;92263;-87
2022/04/24 07:00:42;;;;;;;24.45;7.90;;;20.60;55.80;;;;;;4995927;28;93709;-84
2022/04/24 07:03:28;;;;;;;19.15;7.60;;;20.60;55.70;;;;;;4988641;28;96531;-84
2022/04/24 07:05:56;;;;;;;16.70;6.45;;;20.70;55.30;;;;;;4996790;28;92506;-85
2022/04/24 07:08:24;;;;;;;14.70;7.75;;;20.60;55.40;;;;;;4996196;28;92451;-85
2022/04/24 07:10:53;;;;;;;19.23;8.02;;;20.60;55.30;;;;;;5002380;28;93071;-86
2022/04/24 07:13:19;;;;;;;18.33;8.13;;;20.60;55.20;;;;;;4998708;28;92541;-84
2022/04/24 07:15:45;;;;;;;15.60;7.50;;;20.60;55.40;;;;;;4999344;28;92540;-85
2022/04/24 07:18:11;;;;;;;20.13;7.35;;;20.70;55.80;;;;;;4996122;28;91832;-85
2022/04/24 07:20:37;;;;;;;12.85;7.85;;;20.60;56.20;;;;;;4991221;28;92810;-85
2022/04/24 07:23:05;;;;;;;15.35;7.13;;;20.70;56.40;;;;;;4998847;28;92823;-87
2022/04/24 07:25:40;;;;;;;15.32;7.40;;;20.70;56.30;;;;;;4999477;28;93508;-87
2022/04/24 07:28:07;;;;;;;15.70;8.18;;;20.70;56.40;;;;;;5000250;28;92936;-86
2022/04/24 07:30:33;;;;;;;12.93;7.90;;;20.70;56.50;;;;;;4995965;28;92730;-85
2022/04/24 07:33:03;;;;;;;17.20;7.90;;;20.70;56.70;;;;;;4949487;28;94033;-86
2022/04/24 07:35:42;;;;;;;13.38;8.05;;;20.70;56.80;;;;;;5000122;28;92469;-86
2022/04/24 07:38:09;;;;;;;17.50;8.18;;;20.70;56.80;;;;;;4999616;28;92053;-85
2022/04/24 07:40:37;;;;;;;11.57;7.53;;;20.70;57.00;;;;;;5001334;28;94103;-84
2022/04/24 07:43:08;;;;;;;14.85;8.18;;;20.70;56.90;;;;;;5002740;28;93949;-84
2022/04/24 07:45:39;;;;;;;16.50;7.75;;;20.70;57.40;;;;;;4999846;28;92346;-84
2022/04/24 07:48:07;;;;;;;14.23;8.25;;;20.70;57.50;;;;;;5007760;28;92676;-86
2022/04/24 07:50:37;;;;;;;11.65;7.40;;;20.70;57.90;;;;;;5007072;28;93684;-86
2022/04/24 07:53:04;;;;;;;13.68;7.10;;;20.70;58.00;;;;;;5002928;28;93189;-85
2022/04/24 07:55:30;;;;;;;13.57;7.65;;;20.70;58.20;;;;;;4998041;28;92263;-86
2022/04/24 07:58:03;;;;;;;14.05;6.95;;;20.70;57.60;;;;;;5001306;28;92386;-88
2022/04/24 08:00:30;;;;;;;10.18;5.93;;;20.70;58.00;;;;;;4997405;28;92785;-86
2022/04/24 08:03:01;;;;;;;14.98;7.18;;;20.70;57.10;;;;;;5001455;28;92578;-88
2022/04/24 08:05:38;;;;;;;19.42;7.32;;;20.70;56.80;;;;;;5000171;28;92055;-83
2022/04/24 08:08:09;;;;;;;14.70;7.18;;;20.70;56.50;;;;;;4998625;28;92619;-87
2022/04/24 08:10:37;;;;;;;15.68;7.25;;;20.70;57.50;;;;;;4999656;28;92549;-85
2022/04/24 08:13:04;;;;;;;12.07;6.88;;;20.70;57.50;;;;;;5002680;28;94645;-85
2022/04/24 08:15:30;;;;;;;14.73;7.30;;;20.70;57.50;;;;;;5006544;28;93250;-84
2022/04/24 08:17:56;;;;;;;15.07;7.20;;;20.80;57.50;;;;;;4997646;28;93308;-86
2022/04/24 08:20:21;;;;;;;13.18;7.03;;;20.80;58.30;;;;;;5002777;28;93075;-86
2022/04/24 08:22:49;;;;;;;12.40;6.50;;;20.80;57.60;;;;;;5004549;28;92652;-85
2022/04/24 08:25:20;;;;;;;16.85;7.03;;;20.80;57.70;;;;;;4999255;28;92762;-87
2022/04/24 08:27:47;;;;;;;12.43;6.97;;;20.80;58.00;;;;;;5004095;28;92957;-86
2022/04/24 08:30:14;;;;;;;13.75;7.68;;;20.80;58.20;;;;;;4998985;28;95460;-87
2022/04/24 08:32:41;;;;;;;17.08;7.05;;;20.80;58.20;;;;;;5002724;28;95502;-87
2022/04/24 08:35:08;;;;;;;12.93;6.05;;;20.80;58.50;;;;;;4999637;28;93554;-88
2022/04/24 08:37:34;;;;;;;17.27;7.60;;;20.90;58.70;;;;;;4997501;28;93023;-86
2022/04/24 08:40:00;;;;;;;12.75;7.05;;;20.80;58.50;;;;;;4995902;28;96914;-84
2022/04/24 08:42:27;;;;;;;11.60;6.35;;;20.90;58.50;;;;;;5000280;28;93018;-84
2022/04/24 08:44:56;;;;;;;11.82;6.38;;;20.90;58.70;;;;;;5000889;28;92667;-87
2022/04/24 08:47:22;;;;;;;18.05;6.97;;;20.90;58.80;;;;;;4997214;28;92097;-84
2022/04/24 08:49:48;;;;;;;13.93;7.10;;;20.90;58.80;;;;;;4988438;28;94310;-84
2022/04/24 08:52:14;;;;;;;16.00;7.20;;;21.00;58.80;;;;;;4999873;28;92512;-87
2022/04/24 08:54:41;;;;;;;14.00;7.00;;;21.00;59.00;;;;;;5000787;28;92534;-87
2022/04/24 08:57:08;;;;;;;11.98;6.20;;;20.90;58.80;;;;;;5002122;28;92880;-87
2022/04/24 08:59:36;;;;;;;15.25;6.82;;;20.90;58.30;;;;;;5003657;28;92442;-88
2022/04/24 09:02:01;;;;;;;15.63;6.80;;;20.90;58.80;;;;;;5001255;28;92592;-86
2022/04/24 09:04:30;;;;;;;13.02;6.57;;;20.90;58.80;;;;;;5003245;28;93806;-88
2022/04/24 09:07:00;;;;;;;8.83;5.07;;;20.90;59.20;;;;;;5000717;28;92788;-89
2022/04/24 09:09:26;;;;;;;10.63;4.47;;;21.00;60.60;;;;;;4997836;28;95458;-87
2022/04/24 09:11:52;;;;;;;7.25;4.00;;;21.00;60.30;;;;;;4999173;28;94581;-87
2022/04/24 09:14:19;;;;;;;12.13;6.13;;;21.00;62.10;;;;;;5005526;28;92449;-89
2022/04/24 09:16:49;;;;;;;9.40;5.07;;;21.00;61.60;;;;;;5002284;28;92754;-88
2022/04/24 09:19:20;;;;;;;11.07;5.60;;;21.00;60.30;;;;;;5003316;28;92516;-90
2022/04/24 09:21:50;;;;;;;11.98;5.50;;;21.00;59.40;;;;;;5001644;28;95982;-84
2022/04/24 09:24:16;;;;;;;11.77;5.60;;;21.00;59.60;;;;;;5001335;28;92057;-89
2022/04/24 09:26:56;;;;;;;13.18;5.93;;;21.00;59.90;;;;;;5003996;28;93463;-87
2022/04/24 09:29:23;;;;;;;11.60;5.30;;;21.00;59.90;;;;;;5002631;28;93620;-86
2022/04/24 09:31:50;;;;;;;10.10;5.45;;;21.00;60.00;;;;;;5001320;28;93239;-86
2022/04/24 09:34:20;;;;;;;14.50;6.20;;;21.00;60.20;;;;;;5005145;28;92528;-87
2022/04/24 09:37:08;;;;;;;40.72;11.40;;;21.00;58.90;;;;;;5002161;28;92131;-85
2022/04/24 09:39:36;;;;;;;70.22;20.02;;;21.00;58.70;;;;;;4998903;28;92574;-87
2022/04/24 09:42:10;;;;;;;131.57;33.15;;;21.00;58.50;;;;;;5003318;28;92695;-90
2022/04/24 09:44:44;;;;;;;143.52;35.78;;;21.00;57.30;;;;;;5004458;28;92263;-90
2022/04/24 09:47:10;;;;;;;164.43;42.55;;;21.00;57.60;;;;;;5001455;28;91221;-87
2022/04/24 09:49:49;;;;;;;147.55;38.42;;;21.00;57.80;;;;;;5000822;28;95534;-87
2022/04/24 09:52:22;;;;;;;139.52;34.90;;;21.00;58.30;;;;;;4999821;28;93812;-87
2022/04/24 09:54:50;;;;;;;131.43;33.53;;;21.00;58.10;;;;;;5000279;28;93013;-87
2022/04/24 09:57:17;;;;;;;121.45;33.50;;;21.00;58.60;;;;;;5002872;28;92823;-86
2022/04/24 09:59:46;;;;;;;122.05;33.42;;;21.00;58.80;;;;;;5003972;28;92855;-85
2022/04/24 10:02:15;;;;;;;112.40;33.45;;;21.00;59.00;;;;;;5000502;28;92299;-88
2022/04/24 10:04:42;;;;;;;106.53;33.58;;;21.00;58.80;;;;;;5000199;28;92714;-87
2022/04/24 10:07:16;;;;;;;113.70;32.33;;;21.00;59.10;;;;;;4999968;28;92962;-86
2022/04/24 10:09:44;;;;;;;115.57;32.17;;;21.00;59.00;;;;;;4999995;28;92583;-87
2022/04/24 10:12:15;;;;;;;99.28;29.90;;;21.00;58.90;;;;;;5003709;28;92222;-86
2022/04/24 10:15:06;;;;;;;97.93;29.77;;;21.00;58.80;;;;;;5001463;28;93017;-89
2022/04/24 10:18:03;;;;;;;90.68;28.15;;;21.00;58.80;;;;;;5001500;28;92929;-87
2022/04/24 10:20:59;;;;;;;104.55;29.17;;;21.00;59.00;;;;;;5000294;28;94042;-87
2022/04/24 10:23:36;;;;;;;87.43;27.67;;;21.00;59.20;;;;;;5002742;28;93789;-88
2022/04/24 10:26:03;;;;;;;87.07;27.35;;;21.00;59.20;;;;;;5000689;28;92691;-87
2022/04/24 10:28:39;;;;;;;93.05;27.52;;;21.00;58.90;;;;;;5003882;28;92337;-89
2022/04/24 10:31:06;;;;;;;81.18;27.75;;;21.00;59.00;;;;;;5002063;28;93060;-85
2022/04/24 10:33:36;;;;;;;86.43;25.02;;;21.00;59.10;;;;;;4998540;28;92769;-89
2022/04/24 10:36:13;;;;;;;87.90;26.27;;;21.00;59.30;;;;;;5001990;28;91976;-87
2022/04/24 10:38:53;;;;;;;84.30;24.92;;;21.00;59.40;;;;;;5017543;28;92182;-86
2022/04/24 10:41:21;;;;;;;73.22;24.52;;;21.00;59.50;;;;;;4998014;28;92747;-85
2022/04/24 10:43:53;;;;;;;73.75;24.63;;;21.00;59.80;;;;;;4996751;28;94313;-86
2022/04/24 10:46:26;;;;;;;73.00;24.98;;;21.00;59.70;;;;;;4995230;28;93975;-84
2022/04/24 10:48:53;;;;;;;71.32;24.65;;;21.00;59.40;;;;;;4999450;28;92794;-85
2022/04/24 10:51:30;;;;;;;66.78;22.77;;;21.00;59.40;;;;;;4998556;28;92581;-88
2022/04/24 10:54:02;;;;;;;63.85;22.60;;;21.00;59.40;;;;;;5000103;28;92887;-88
2022/04/24 10:56:29;;;;;;;71.38;22.38;;;21.00;59.10;;;;;;5002659;28;92092;-89
2022/04/24 10:59:15;;;;;;;72.15;23.40;;;21.00;59.10;;;;;;4996553;28;93105;-87
2022/04/24 11:01:47;;;;;;;69.50;21.33;;;21.00;58.90;;;;;;4999605;28;93216;-88
2022/04/24 11:04:14;;;;;;;59.17;20.77;;;21.00;59.00;;;;;;5002696;28;93333;-89
2022/04/24 11:06:54;;;;;;;62.70;21.13;;;21.00;59.10;;;;;;5004773;28;92146;-89
2022/04/24 11:09:20;;;;;;;60.10;20.20;;;21.00;59.00;;;;;;5002018;28;93762;-90
2022/04/24 11:11:51;;;;;;;55.13;18.63;;;21.00;58.70;;;;;;5000115;28;96766;-87
2022/04/24 11:14:22;;;;;;;58.00;19.75;;;21.00;58.80;;;;;;5000406;28;94435;-89
2022/04/24 11:16:53;;;;;;;55.47;20.02;;;21.00;58.70;;;;;;5001140;28;93254;-89
2022/04/24 11:19:24;;;;;;;55.40;20.10;;;21.00;59.30;;;;;;5001186;28;92370;-88
2022/04/24 11:21:58;;;;;;;56.72;19.92;;;21.00;58.60;;;;;;5001392;28;92905;-89
2022/04/24 11:24:28;;;;;;;51.97;18.65;;;21.00;58.50;;;;;;5002039;28;92887;-89
2022/04/24 11:27:08;;;;;;;54.55;20.38;;;21.00;58.60;;;;;;5002528;28;92889;-89
2022/04/24 11:29:33;;;;;;;54.42;19.65;;;21.00;58.60;;;;;;4999998;28;91905;-88
2022/04/24 11:32:00;;;;;;;49.53;18.38;;;21.00;58.70;;;;;;5002034;28;93001;-87
2022/04/24 11:34:26;;;;;;;54.35;19.88;;;21.00;58.60;;;;;;5004708;28;92871;-89
2022/04/24 11:36:57;;;;;;;47.25;18.42;;;21.00;58.70;;;;;;5002503;28;93799;-89
2022/04/24 11:39:23;;;;;;;50.47;18.58;;;21.00;58.70;;;;;;5002181;28;92650;-88
2022/04/24 11:41:51;;;;;;;48.13;18.50;;;21.00;58.70;;;;;;5002928;28;93612;-89
2022/04/24 11:50:15;;;;;;;46.22;18.05;;;21.00;58.70;;;;;;5003433;28;92069;-89
2022/04/24 11:52:48;;;;;;;45.50;17.38;;;21.00;58.80;;;;;;5004238;28;96065;-88
2022/04/24 11:58:26;;;;;;;50.78;18.20;;;21.00;58.70;;;;;;5004538;28;91985;-87
2022/04/24 12:00:52;;;;;;;45.53;18.85;;;21.00;58.80;;;;;;5003197;28;92750;-90
2022/04/24 12:03:17;;;;;;;51.15;18.67;;;21.00;58.90;;;;;;5004181;28;93767;-87
2022/04/24 12:05:43;;;;;;;42.47;16.80;;;21.00;58.90;;;;;;5004318;28;93866;-88
2022/04/24 12:08:13;;;;;;;40.97;16.42;;;21.00;58.90;;;;;;5005449;28;92594;-87
2022/04/24 12:10:44;;;;;;;49.42;17.77;;;21.00;59.00;;;;;;5003402;28;92105;-88
2022/04/24 12:13:14;;;;;;;44.47;17.10;;;21.00;58.80;;;;;;5002688;28;92637;-90
2022/04/24 12:15:52;;;;;;;45.35;17.00;;;21.00;58.80;;;;;;5006285;28;92723;-89
2022/04/24 12:18:27;;;;;;;36.67;15.85;;;21.00;58.80;;;;;;5004080;28;92227;-87
2022/04/24 12:20:52;;;;;;;40.97;16.42;;;21.00;58.90;;;;;;5004744;28;91289;-89
2022/04/24 12:23:19;;;;;;;46.20;17.88;;;21.00;58.90;;;;;;5001504;28;95296;-88
2022/04/24 12:25:50;;;;;;;45.65;17.63;;;21.00;58.80;;;;;;5002128;28;92663;-89
2022/04/24 12:28:41;;;;;;;42.03;16.83;;;21.00;58.90;;;;;;5004077;28;95657;-89
2022/04/24 12:31:19;;;;;;;40.42;16.95;;;21.00;59.00;;;;;;5003583;28;92019;-88
2022/04/24 12:33:50;;;;;;;45.38;17.70;;;21.00;59.00;;;;;;5001864;28;95580;-88
2022/04/24 12:36:16;;;;;;;41.85;17.10;;;21.00;59.60;;;;;;5019816;28;94553;-87
2022/04/24 12:38:57;;;;;;;43.83;17.45;;;21.00;58.90;;;;;;5004459;28;92637;-90
2022/04/24 12:41:24;;;;;;;39.72;16.08;;;21.00;59.00;;;;;;5001643;28;92482;-87
2022/04/24 12:43:50;;;;;;;36.38;15.90;;;21.00;58.90;;;;;;5002691;28;93064;-88
2022/04/24 12:46:16;;;;;;;40.28;16.88;;;21.00;58.90;;;;;;5003734;28;94134;-89
2022/04/24 12:48:50;;;;;;;39.20;16.92;;;21.00;59.10;;;;;;5001069;28;92590;-90
2022/04/24 12:51:18;;;;;;;39.53;16.95;;;21.00;59.10;;;;;;5001766;28;92431;-90
2022/04/24 12:53:44;;;;;;;45.70;18.08;;;21.00;59.30;;;;;;5000390;28;96099;-89